Terminal Aerodrome Forecast
Issued by NWS

Home | Current Version | Previous Version | Text Only | Print | Product List | Glossary On
Versions: 1 2 3 4 5 6 7 8 9 10 11 12 13 14 15 16 17 18 19 20 21 22
000
FTUS44 KCRP 162300
TAFLRD
TAF
KLRD 162328Z 1700/1724 VRB05KT P6SM VCSH SCT025 BKN040 OVC100
      TEMPO 1700/1702 VRB15G25KT 4SM -TSRA SCT015 OVC025CB
     FM170500 VRB04KT P6SM OVC020 PROB30 1716/1719 VRB15G25KT 5SM
      TSRA OVC015CB
     FM171900 17010KT P6SM VCTS SCT028CB BKN040 PROB30 1719/1724
      VRB15G25KT 5SM TSRA OVC015CB=

USA.gov is the U.S. government's official web portal to all federal, state and local government web resources and services.